Carter Lake, Iowa
Current Conditions -  °F | °C
As of 6:52 PM on Sunday 28 Dec 2014 (Local Time) from KOMA Reporting Station
Overcast Overcast  
Wind Chill: 18°   Ceiling: 12000
Heat Index: 27°   Visibility: 10mi
Dew Point: 21°   Wind: 9mph
Humidity: 78%   Direction: 350°N
Pressure: 30.17"   Gusts: NA
Location:  41.29°N, 95.92°W
Report Text: KOMA 290052Z 35008KT 10SM BKN120 OVC250 M03/M06 A3017 RMK AO2 SLP231 T10281061 $
Loading
Personal Weather Stations






























Interactive Weather Map New forecast layout! Learn more

10-Day Weather Forecast

Advertisements
Track Severe Weather on mobile